createdAt,value
2022-09-23T00:00:15.819Z,7.63
2022-09-23T00:02:50.070Z,7.22
2022-09-23T00:05:24.019Z,6.25
2022-09-23T00:10:32.329Z,9.57
2022-09-23T00:13:08.072Z,4.90
2022-09-23T00:15:41.915Z,7.95
2022-09-23T00:20:49.595Z,9.32
2022-09-23T00:23:23.459Z,6.22
2022-09-23T00:28:33.409Z,9.35
2022-09-23T00:31:09.488Z,5.60
2022-09-23T00:33:43.525Z,4.60
2022-09-23T00:36:17.748Z,6.13
2022-09-23T00:38:51.739Z,6.30
2022-09-23T00:41:26.402Z,6.07
2022-09-23T00:44:03.640Z,7.38
2022-09-23T00:46:41.328Z,6.00
2022-09-23T00:49:30.187Z,7.38
2022-09-23T00:52:12.569Z,9.30
2022-09-23T00:54:47.761Z,6.43
2022-09-23T00:57:22.118Z,8.07
2022-09-23T00:59:58.000Z,7.28
2022-09-23T01:02:33.114Z,8.27
2022-09-23T01:05:09.374Z,6.18
2022-09-23T01:07:43.199Z,5.00
2022-09-23T01:10:19.530Z,9.23
2022-09-23T01:13:15.543Z,6.35
2022-09-23T01:15:54.720Z,4.30
2022-09-23T01:18:36.451Z,5.93
2022-09-23T01:21:23.065Z,8.55
2022-09-23T01:24:34.005Z,5.68
2022-09-23T01:27:15.005Z,7.28
2022-09-23T01:30:13.837Z,5.88
2022-09-23T01:33:05.899Z,6.10
2022-09-23T01:35:55.634Z,5.07
2022-09-23T01:38:37.364Z,4.72
2022-09-23T01:41:27.749Z,6.07
2022-09-23T01:44:07.107Z,8.45
2022-09-23T01:46:49.519Z,4.55
2022-09-23T01:49:30.552Z,5.70
2022-09-23T01:52:11.019Z,5.50
2022-09-23T01:54:50.777Z,4.22
2022-09-23T01:57:30.070Z,7.60
2022-09-23T02:00:09.334Z,5.10
2022-09-23T02:02:50.447Z,5.35
2022-09-23T02:05:30.567Z,4.55
2022-09-23T02:08:10.447Z,5.60
2022-09-23T02:10:48.997Z,5.20
2022-09-23T02:13:30.129Z,5.05
2022-09-23T02:16:10.554Z,5.60
2022-09-23T02:18:48.845Z,4.57
2022-09-23T02:21:27.941Z,4.68
2022-09-23T02:24:09.250Z,4.32
2022-09-23T02:26:51.397Z,7.22
2022-09-23T02:29:32.576Z,7.13
2022-09-23T02:32:15.105Z,6.38
2022-09-23T02:34:57.118Z,4.68
2022-09-23T02:37:41.136Z,5.20
2022-09-23T02:40:23.728Z,4.45
2022-09-23T02:43:05.342Z,4.35
2022-09-23T02:45:39.346Z,5.10
2022-09-23T02:48:19.349Z,4.05
2022-09-23T02:50:54.560Z,4.65
2022-09-23T02:53:32.254Z,3.72
2022-09-23T02:56:16.248Z,4.32
2022-09-23T02:58:51.974Z,5.88
2022-09-23T03:01:39.371Z,5.50
2022-09-23T03:04:19.715Z,6.18
2022-09-23T03:07:02.344Z,4.05
2022-09-23T03:09:43.631Z,4.43
2022-09-23T03:12:25.324Z,4.43
2022-09-23T03:15:07.312Z,5.53
2022-09-23T03:17:48.821Z,6.10
2022-09-23T03:20:31.109Z,3.67
2022-09-23T03:23:09.422Z,3.60
2022-09-23T03:25:48.625Z,3.42
2022-09-23T03:28:25.539Z,4.95
2022-09-23T03:31:01.206Z,3.65
2022-09-23T03:33:38.216Z,3.95
2022-09-23T03:36:33.012Z,5.55
2022-09-23T03:39:09.995Z,3.88
2022-09-23T03:41:51.020Z,4.75
2022-09-23T03:44:25.004Z,4.22
2022-09-23T03:47:00.817Z,4.57
2022-09-23T03:49:37.876Z,4.30
2022-09-23T03:52:11.643Z,4.28
2022-09-23T03:54:45.980Z,7.97
2022-09-23T03:57:22.199Z,6.00
2022-09-23T03:59:56.004Z,4.82
2022-09-23T04:02:30.025Z,5.00
2022-09-23T04:05:04.004Z,6.38
2022-09-23T04:10:12.193Z,5.60
2022-09-23T04:12:47.405Z,4.85
2022-09-23T04:15:22.046Z,5.32
2022-09-23T04:17:55.799Z,5.28
2022-09-23T04:20:30.409Z,7.05
2022-09-23T04:23:04.188Z,5.97
2022-09-23T04:28:12.903Z,4.95
2022-09-23T04:30:47.422Z,5.93
2022-09-23T04:33:21.200Z,6.45
2022-09-23T04:35:56.861Z,5.55
2022-09-23T04:38:30.626Z,5.78
2022-09-23T04:41:04.672Z,4.78
2022-09-23T04:46:15.203Z,4.05
2022-09-23T04:48:49.056Z,4.88
2022-09-23T04:53:57.772Z,5.80
2022-09-23T04:56:33.548Z,4.85
2022-09-23T04:59:08.938Z,7.15
2022-09-23T05:01:43.912Z,4.82
2022-09-23T05:04:17.870Z,4.43
2022-09-23T05:06:51.677Z,4.88
2022-09-23T05:11:59.116Z,6.87
2022-09-23T05:17:07.920Z,5.93
2022-09-23T05:19:42.630Z,12.20
2022-09-23T05:22:16.570Z,5.28
2022-09-23T05:27:24.032Z,5.20
2022-09-23T05:29:59.260Z,7.45
2022-09-23T05:32:33.124Z,8.48
2022-09-23T05:37:40.937Z,9.07
2022-09-23T05:42:48.762Z,6.00
2022-09-23T05:48:00.851Z,7.80
2022-09-23T05:50:34.992Z,10.68
2022-09-23T05:53:08.794Z,13.07
2022-09-23T05:55:42.584Z,6.72
2022-09-23T06:00:53.266Z,8.02
2022-09-23T06:03:27.824Z,8.27
2022-09-23T06:06:01.720Z,10.90
2022-09-23T06:11:10.113Z,10.68
2022-09-23T06:13:43.898Z,7.70
2022-09-23T06:16:19.148Z,8.90
2022-09-23T06:18:52.975Z,6.00
2022-09-23T06:24:01.130Z,4.57
2022-09-23T06:26:35.336Z,10.05
2022-09-23T06:29:12.012Z,8.35
2022-09-23T06:31:47.301Z,8.88
2022-09-23T06:34:21.540Z,5.35
2022-09-23T06:36:55.905Z,3.97
2022-09-23T06:39:30.266Z,4.18
2022-09-23T06:42:05.173Z,4.80
2022-09-23T06:44:39.889Z,5.75
2022-09-23T06:49:49.193Z,9.18
2022-09-23T06:52:23.255Z,5.18
2022-09-23T06:57:34.738Z,6.63
2022-09-23T07:00:09.982Z,5.70
2022-09-23T07:02:45.422Z,5.95
2022-09-23T07:05:19.771Z,5.75
2022-09-23T07:07:54.189Z,5.57
2022-09-23T07:10:29.286Z,7.13
2022-09-23T07:13:03.472Z,6.25
2022-09-23T07:15:37.279Z,6.65
2022-09-23T07:20:46.657Z,6.28
2022-09-23T07:23:20.818Z,6.35
2022-09-23T07:25:54.650Z,5.43
2022-09-23T07:31:08.200Z,5.28
2022-09-23T07:33:44.496Z,7.03
2022-09-23T07:36:20.444Z,5.50
2022-09-23T07:38:55.539Z,9.27
2022-09-23T07:41:29.893Z,5.15
2022-09-23T07:44:06.322Z,6.80
2022-09-23T07:46:40.371Z,5.10
2022-09-23T07:49:15.758Z,13.98
2022-09-23T07:51:49.624Z,10.20
2022-09-23T07:57:00.407Z,8.18
2022-09-23T07:59:34.755Z,8.85
2022-09-23T08:02:10.161Z,11.18
2022-09-23T08:04:46.392Z,9.35
2022-09-23T08:07:20.380Z,13.65
2022-09-23T08:09:54.141Z,10.45
2022-09-23T08:15:02.624Z,7.57
2022-09-23T08:17:36.461Z,11.15
2022-09-23T08:23:07.411Z,11.30
2022-09-23T08:25:44.096Z,10.63
2022-09-23T08:28:19.317Z,7.65
2022-09-23T08:30:53.359Z,7.47
2022-09-23T08:33:27.505Z,9.48
2022-09-23T08:36:04.049Z,9.32
2022-09-23T08:38:37.877Z,7.38
2022-09-23T08:43:55.928Z,6.70
2022-09-23T08:46:34.774Z,9.98
2022-09-23T08:49:11.550Z,7.78
2022-09-23T08:51:49.177Z,6.63
2022-09-23T08:54:23.506Z,6.30
2022-09-23T08:57:00.967Z,7.30
2022-09-23T08:59:42.848Z,7.40
2022-09-23T09:02:20.841Z,7.07
2022-09-23T09:04:58.270Z,10.32
2022-09-23T09:07:37.677Z,7.85
2022-09-23T09:10:17.293Z,9.27
2022-09-23T09:12:53.811Z,7.93
2022-09-23T09:15:28.961Z,6.07
2022-09-23T09:18:06.569Z,22.33
2022-09-23T09:20:42.335Z,12.50
2022-09-23T09:23:23.645Z,13.27
2022-09-23T09:26:00.953Z,13.95
2022-09-23T09:28:39.690Z,10.00
2022-09-23T09:31:28.654Z,10.57
2022-09-23T09:34:06.417Z,6.18
2022-09-23T09:36:45.794Z,7.57
2022-09-23T09:39:25.978Z,13.57
2022-09-23T09:42:00.573Z,10.40
2022-09-23T09:44:41.748Z,7.70
2022-09-23T09:47:28.595Z,9.88
2022-09-23T09:50:09.145Z,7.53
2022-09-23T09:52:43.302Z,12.43
2022-09-23T09:55:26.628Z,6.70
2022-09-23T09:58:05.917Z,12.43
2022-09-23T10:00:45.831Z,8.60
2022-09-23T10:03:38.309Z,11.52
2022-09-23T10:06:20.998Z,6.07
2022-09-23T10:09:22.198Z,13.48
2022-09-23T10:12:18.734Z,6.57
2022-09-23T10:14:56.736Z,8.60
2022-09-23T10:17:34.776Z,4.63
2022-09-23T10:20:11.078Z,7.18
2022-09-23T10:22:44.993Z,5.40
2022-09-23T10:25:22.206Z,4.93
2022-09-23T10:27:57.413Z,5.28
2022-09-23T10:30:31.288Z,5.45
2022-09-23T10:33:06.577Z,5.07
2022-09-23T10:35:56.787Z,4.28
2022-09-23T10:38:30.665Z,9.98
2022-09-23T10:41:23.051Z,6.05
2022-09-23T10:44:23.996Z,8.98
2022-09-23T10:47:10.410Z,5.65
2022-09-23T10:50:01.354Z,7.20
2022-09-23T10:52:56.324Z,6.93
2022-09-23T10:55:41.446Z,4.68
2022-09-23T10:58:47.872Z,6.50
2022-09-23T11:01:33.552Z,7.30
2022-09-23T11:04:21.476Z,6.70
2022-09-23T11:07:16.581Z,6.30
2022-09-23T11:10:05.052Z,3.53
2022-09-23T11:12:48.363Z,7.97
2022-09-23T11:15:33.774Z,4.78
2022-09-23T11:18:31.681Z,7.65
2022-09-23T11:21:21.677Z,5.95
2022-09-23T11:24:08.880Z,4.65
2022-09-23T11:26:53.199Z,4.13
2022-09-23T11:30:00.482Z,9.15
2022-09-23T11:32:55.732Z,5.68
2022-09-23T11:35:36.497Z,3.10
2022-09-23T11:38:13.488Z,4.95
2022-09-23T11:40:54.887Z,5.75
2022-09-23T11:43:33.646Z,4.47
2022-09-23T11:46:14.411Z,8.70
2022-09-23T11:48:53.661Z,4.68
2022-09-23T11:51:38.176Z,13.27
2022-09-23T11:54:20.585Z,5.95
2022-09-23T11:56:58.320Z,5.75
2022-09-23T11:59:41.148Z,11.02
2022-09-23T12:02:25.656Z,3.28
2022-09-23T12:05:07.571Z,4.68
2022-09-23T12:08:14.410Z,5.95
2022-09-23T12:11:07.331Z,4.93
2022-09-23T12:13:50.959Z,2.65
2022-09-23T12:16:55.783Z,7.05
2022-09-23T12:20:09.390Z,4.50
2022-09-23T12:22:57.382Z,4.68
2022-09-23T12:25:46.715Z,6.43
2022-09-23T12:28:26.320Z,3.95
2022-09-23T12:31:02.462Z,4.93
2022-09-23T12:33:38.829Z,3.67
2022-09-23T12:36:13.718Z,2.55
2022-09-23T12:38:53.584Z,2.42
2022-09-23T12:41:35.469Z,2.95
2022-09-23T12:44:27.601Z,6.47
2022-09-23T12:47:32.172Z,2.35
2022-09-23T12:50:43.096Z,3.00
2022-09-23T12:53:52.548Z,3.28
2022-09-23T12:56:31.226Z,4.50
2022-09-23T12:59:25.860Z,5.38
2022-09-23T13:02:22.558Z,3.58
2022-09-23T13:05:21.412Z,2.42
2022-09-23T13:08:01.996Z,2.47
2022-09-23T13:10:43.415Z,2.85
2022-09-23T13:13:24.445Z,5.35
2022-09-23T13:16:12.793Z,6.00
2022-09-23T13:18:54.645Z,4.05
2022-09-23T13:22:01.272Z,3.80
2022-09-23T13:24:42.192Z,5.68
2022-09-23T13:27:32.534Z,8.57
2022-09-23T13:30:23.650Z,11.60
2022-09-23T13:33:10.278Z,12.20
2022-09-23T13:35:50.824Z,11.90
2022-09-23T13:38:26.475Z,8.30
2022-09-23T13:41:03.424Z,19.40
2022-09-23T13:43:41.428Z,12.18
2022-09-23T13:46:20.484Z,9.60
2022-09-23T13:48:56.316Z,13.48
2022-09-23T13:51:34.947Z,27.27
2022-09-23T13:54:29.885Z,13.40
2022-09-23T13:57:04.345Z,10.30
2022-09-23T13:59:39.937Z,11.05
2022-09-23T14:02:17.018Z,4.82
2022-09-23T14:04:50.999Z,11.55
2022-09-23T14:07:25.439Z,9.15
2022-09-23T14:09:59.461Z,9.57
2022-09-23T14:12:33.371Z,6.78
2022-09-23T14:17:48.155Z,9.55
2022-09-23T14:20:23.576Z,6.82
2022-09-23T14:23:07.877Z,7.35
2022-09-23T14:25:44.519Z,3.58
2022-09-23T14:28:20.396Z,6.20
2022-09-23T14:30:57.782Z,6.18
2022-09-23T14:33:35.199Z,6.32
2022-09-23T14:36:32.141Z,10.32
2022-09-23T14:39:08.598Z,5.80
2022-09-23T14:41:45.082Z,4.03
2022-09-23T14:44:23.611Z,7.72
2022-09-23T14:46:59.395Z,4.05
2022-09-23T14:49:34.708Z,8.95
2022-09-23T14:52:08.570Z,2.88
2022-09-23T14:57:28.205Z,6.40
2022-09-23T15:00:09.879Z,4.55
2022-09-23T15:02:45.827Z,6.82
2022-09-23T15:05:23.350Z,4.60
2022-09-23T15:07:58.890Z,2.50
2022-09-23T15:10:35.059Z,6.32
2022-09-23T15:13:14.026Z,6.85
2022-09-23T15:15:48.188Z,8.07
2022-09-23T15:18:24.961Z,6.78
2022-09-23T15:21:04.829Z,3.90
2022-09-23T15:23:46.597Z,3.47
2022-09-23T15:26:22.570Z,2.72
2022-09-23T15:28:58.606Z,3.92
2022-09-23T15:31:33.142Z,2.55
2022-09-23T15:34:07.172Z,7.60
2022-09-23T15:36:43.937Z,8.55
2022-09-23T15:39:18.190Z,3.25
2022-09-23T15:41:52.015Z,9.43
2022-09-23T15:47:03.667Z,5.88
2022-09-23T15:49:40.296Z,7.70
2022-09-23T15:52:16.139Z,8.52
2022-09-23T15:54:50.156Z,7.40
2022-09-23T15:57:26.170Z,6.97
2022-09-23T16:00:00.123Z,10.57
2022-09-23T16:02:34.164Z,4.93
2022-09-23T16:05:12.471Z,10.90
2022-09-23T16:07:48.536Z,8.77
2022-09-23T16:10:24.160Z,10.45
2022-09-23T16:13:01.313Z,3.90
2022-09-23T16:15:35.561Z,4.20
2022-09-23T16:23:35.692Z,10.60
2022-09-23T16:26:16.656Z,8.68
2022-09-23T16:28:52.098Z,8.13
2022-09-23T16:31:29.034Z,14.38
2022-09-23T16:34:03.188Z,14.82
2022-09-23T16:36:41.321Z,10.93
2022-09-23T16:39:16.683Z,15.98
2022-09-23T16:41:50.536Z,14.18
2022-09-23T16:49:32.748Z,7.80
2022-09-23T16:52:06.725Z,15.45
2022-09-23T16:54:43.449Z,12.38
2022-09-23T16:57:17.471Z,12.50
2022-09-23T17:00:08.711Z,10.82
2022-09-23T17:02:59.869Z,7.10
2022-09-23T17:05:33.792Z,9.77
2022-09-23T17:08:07.947Z,6.78
2022-09-23T17:10:43.499Z,13.13
2022-09-23T17:13:17.580Z,21.83
2022-09-23T17:15:51.698Z,26.13
2022-09-23T17:18:25.853Z,102.95
2022-09-23T17:21:01.767Z,71.80
2022-09-23T17:23:37.211Z,124.35
2022-09-23T17:26:13.402Z,152.68
2022-09-23T17:28:47.340Z,146.15
2022-09-23T17:31:22.247Z,155.32
2022-09-23T17:33:56.385Z,149.10
2022-09-23T17:36:30.383Z,152.20
2022-09-23T17:39:05.633Z,142.70
2022-09-23T17:41:41.119Z,152.95
2022-09-23T17:44:17.742Z,130.82
2022-09-23T17:46:52.356Z,134.60
2022-09-23T17:49:26.535Z,131.38
2022-09-23T17:52:04.322Z,126.93
2022-09-23T17:54:38.439Z,116.78
2022-09-23T17:57:14.179Z,120.47
2022-09-23T17:59:50.872Z,112.70
2022-09-23T18:02:24.976Z,107.03
2022-09-23T18:04:58.988Z,109.35
2022-09-23T18:07:33.700Z,103.57
2022-09-23T18:10:09.346Z,98.95
2022-09-23T18:12:45.143Z,95.10
2022-09-23T18:15:20.271Z,96.75
2022-09-23T18:17:54.708Z,89.05
2022-09-23T18:20:28.806Z,87.65
2022-09-23T18:23:02.958Z,83.53
2022-09-23T18:25:39.864Z,83.82
2022-09-23T18:28:15.938Z,80.18
2022-09-23T18:30:55.193Z,77.25
2022-09-23T18:33:29.284Z,73.72
2022-09-23T18:36:03.715Z,71.95
2022-09-23T18:38:37.997Z,71.50
2022-09-23T18:41:12.285Z,90.30
2022-09-23T18:43:48.800Z,68.30
2022-09-23T18:46:25.262Z,69.80
2022-09-23T18:49:17.159Z,64.40
2022-09-23T18:51:54.400Z,66.70
2022-09-23T18:54:30.677Z,63.05
2022-09-23T18:57:05.783Z,65.90
2022-09-23T18:59:42.460Z,63.08
2022-09-23T19:02:17.513Z,60.20
2022-09-23T19:04:53.135Z,55.78
2022-09-23T19:07:27.707Z,59.42
2022-09-23T19:10:01.918Z,53.65
2022-09-23T19:12:36.768Z,50.30
2022-09-23T19:15:14.097Z,55.92
2022-09-23T19:17:48.167Z,54.47
2022-09-23T19:20:23.150Z,48.42
2022-09-23T19:22:58.058Z,49.70
2022-09-23T19:25:32.425Z,49.28
2022-09-23T19:28:08.608Z,51.72
2022-09-23T19:30:44.803Z,46.65
2022-09-23T19:33:18.890Z,52.03
2022-09-23T19:38:28.252Z,46.05
2022-09-23T19:41:06.355Z,45.00
2022-09-23T19:43:41.250Z,46.22
2022-09-23T19:46:17.144Z,42.35
2022-09-23T19:48:51.855Z,43.13
2022-09-23T19:51:26.582Z,43.97
2022-09-23T19:54:02.636Z,41.22
2022-09-23T19:56:37.940Z,41.78
2022-09-23T19:59:16.452Z,40.40
2022-09-23T20:01:55.421Z,41.70
2022-09-23T20:04:29.809Z,41.95
2022-09-23T20:07:05.116Z,38.65
2022-09-23T20:09:39.111Z,34.08
2022-09-23T20:12:13.082Z,34.75
2022-09-23T20:14:46.925Z,37.25
2022-09-23T20:19:55.797Z,33.47
2022-09-23T20:25:13.285Z,34.45
2022-09-23T20:27:52.320Z,34.50
2022-09-23T20:30:26.372Z,33.08
2022-09-23T20:33:01.647Z,40.53
2022-09-23T20:35:35.502Z,44.97
2022-09-23T20:38:09.409Z,33.38
2022-09-23T20:43:18.367Z,33.60
2022-09-23T20:45:53.166Z,31.90
2022-09-23T20:48:29.053Z,35.83
2022-09-23T20:51:03.332Z,34.28
2022-09-23T20:53:37.633Z,37.05
2022-09-23T20:56:11.563Z,36.85
2022-09-23T20:58:47.293Z,37.13
2022-09-23T21:01:22.059Z,32.65
2022-09-23T21:03:57.492Z,39.17
2022-09-23T21:06:31.412Z,36.53
2022-09-23T21:09:06.191Z,34.75
2022-09-23T21:11:40.058Z,34.45
2022-09-23T21:16:48.513Z,39.47
2022-09-23T21:19:24.546Z,40.53
2022-09-23T21:21:58.498Z,37.03
2022-09-23T21:27:27.241Z,37.87
2022-09-23T21:30:01.215Z,42.20
2022-09-23T21:32:35.112Z,41.60
2022-09-23T21:37:44.476Z,41.50
2022-09-23T21:40:35.746Z,38.85
2022-09-23T21:43:12.700Z,41.22
2022-09-23T21:45:47.232Z,38.35
2022-09-23T21:48:21.318Z,40.60
2022-09-23T21:53:36.596Z,39.70
2022-09-23T21:56:14.033Z,39.55
2022-09-23T21:58:52.281Z,42.40
2022-09-23T22:01:28.059Z,38.53
2022-09-23T22:04:08.623Z,41.53
2022-09-23T22:06:44.276Z,39.95
2022-09-23T22:09:20.229Z,43.00
2022-09-23T22:12:11.732Z,42.65
2022-09-23T22:14:47.407Z,40.42
2022-09-23T22:17:21.568Z,45.70
2022-09-23T22:19:55.894Z,45.53
2022-09-23T22:22:31.324Z,40.30
2022-09-23T22:25:05.794Z,44.28
2022-09-23T22:27:59.968Z,43.88
2022-09-23T22:30:47.692Z,40.35
2022-09-23T22:33:22.173Z,42.70
2022-09-23T22:36:03.006Z,41.80
2022-09-23T22:38:38.817Z,39.95
2022-09-23T22:41:15.327Z,50.42
2022-09-23T22:43:49.198Z,42.38
2022-09-23T22:48:59.356Z,40.25
2022-09-23T22:51:33.239Z,41.35
2022-09-23T22:54:09.268Z,39.60
2022-09-23T22:56:44.075Z,42.13
2022-09-23T22:59:17.969Z,41.22
2022-09-23T23:01:52.981Z,38.60
2022-09-23T23:04:28.718Z,37.00
2022-09-23T23:07:06.118Z,40.47
2022-09-23T23:09:41.662Z,39.95
2022-09-23T23:12:15.814Z,34.35
2022-09-23T23:14:50.492Z,45.22
2022-09-23T23:17:24.442Z,36.53
2022-09-23T23:19:58.653Z,39.08
2022-09-23T23:22:32.863Z,32.78
2022-09-23T23:25:09.910Z,32.40
2022-09-23T23:27:43.850Z,39.22
2022-09-23T23:30:17.837Z,33.25
2022-09-23T23:32:51.707Z,30.95
2022-09-23T23:35:25.742Z,34.63
2022-09-23T23:37:59.798Z,29.90
2022-09-23T23:40:38.529Z,30.42
2022-09-23T23:43:12.443Z,32.85
2022-09-23T23:48:20.561Z,29.52
2022-09-23T23:50:55.137Z,32.50
2022-09-23T23:53:32.337Z,29.38
2022-09-23T23:56:10.218Z,29.73
2022-09-23T23:58:44.613Z,32.22
